Terminal Aerodrome Forecast
Issued by NWS

Home | Current Version | Previous Version | Text Only | Print | Product List | Glossary On
Versions: 1 2 3 4 5 6 7 8 9 10 11 12 13
430
FTUS41 KPBZ 180530
TAFMGW
TAF
KMGW 180530Z 1806/1906 21003KT P6SM OVC035
     FM181300 22005KT 6SM BR OVC015
     FM181500 22006KT P6SM OVC010
     FM182100 23007KT P6SM OVC008
     FM190400 23008KT P6SM BKN015=

USA.gov is the U.S. government's official web portal to all federal, state and local government web resources and services.